createdAt,value
2018-10-21T00:01:45.196Z,3.30
2018-10-21T00:04:14.761Z,3.17
2018-10-21T00:06:43.681Z,3.37
2018-10-21T00:09:14.029Z,3.63
2018-10-21T00:11:43.474Z,3.57
2018-10-21T00:14:12.328Z,4.03
2018-10-21T00:16:42.068Z,3.60
2018-10-21T00:19:12.573Z,4.07
2018-10-21T00:21:41.891Z,3.40
2018-10-21T00:24:11.980Z,4.37
2018-10-21T00:26:41.520Z,3.50
2018-10-21T00:29:11.162Z,3.67
2018-10-21T00:31:41.176Z,4.13
2018-10-21T00:34:11.312Z,3.63
2018-10-21T00:36:40.291Z,3.77
2018-10-21T00:39:12.014Z,3.93
2018-10-21T00:41:41.735Z,3.77
2018-10-21T00:44:11.353Z,3.60
2018-10-21T00:46:41.581Z,4.53
2018-10-21T00:49:11.516Z,3.47
2018-10-21T00:51:41.281Z,3.80
2018-10-21T00:54:16.647Z,3.57
2018-10-21T00:56:46.850Z,3.67
2018-10-21T00:59:17.330Z,4.13
2018-10-21T01:01:46.184Z,3.83
2018-10-21T01:04:15.578Z,3.90
2018-10-21T01:06:45.186Z,3.73
2018-10-21T01:09:14.362Z,4.40
2018-10-21T01:11:44.197Z,3.60
2018-10-21T01:14:12.941Z,3.83
2018-10-21T01:16:42.479Z,3.83
2018-10-21T01:19:12.179Z,4.07
2018-10-21T01:21:41.663Z,3.83
2018-10-21T01:24:11.266Z,4.20
2018-10-21T01:26:40.747Z,3.57
2018-10-21T01:29:10.836Z,4.00
2018-10-21T01:31:41.332Z,3.50
2018-10-21T01:34:10.707Z,4.93
2018-10-21T01:36:39.887Z,4.30
2018-10-21T01:39:10.829Z,3.57
2018-10-21T01:41:41.167Z,3.03
2018-10-21T01:44:10.135Z,3.97
2018-10-21T01:46:38.899Z,2.60
2018-10-21T01:49:08.163Z,4.40
2018-10-21T01:51:43.662Z,3.80
2018-10-21T01:54:12.546Z,3.97
2018-10-21T01:56:42.159Z,3.63
2018-10-21T01:59:12.870Z,3.57
2018-10-21T02:01:42.626Z,3.53
2018-10-21T02:04:12.805Z,3.43
2018-10-21T02:06:42.188Z,3.90
2018-10-21T02:09:11.679Z,4.13
2018-10-21T02:11:41.950Z,3.40
2018-10-21T02:14:11.445Z,4.13
2018-10-21T02:16:41.052Z,3.20
2018-10-21T02:19:10.112Z,3.30
2018-10-21T02:21:38.921Z,3.17
2018-10-21T02:24:07.811Z,4.47
2018-10-21T02:26:36.633Z,3.03
2018-10-21T02:29:06.179Z,3.83
2018-10-21T02:31:34.921Z,3.40
2018-10-21T02:34:04.839Z,3.70
2018-10-21T02:36:34.610Z,3.30
2018-10-21T02:39:04.469Z,4.13
2018-10-21T02:41:46.206Z,3.30
2018-10-21T02:44:21.242Z,3.40
2018-10-21T02:46:51.444Z,3.13
2018-10-21T02:49:21.499Z,3.77
2018-10-21T02:51:55.560Z,3.10
2018-10-21T02:54:25.585Z,3.13
2018-10-21T02:56:54.467Z,3.50
2018-10-21T02:59:24.612Z,3.03
2018-10-21T03:01:53.430Z,3.20
2018-10-21T03:04:23.253Z,3.27
2018-10-21T03:06:52.782Z,3.33
2018-10-21T03:09:21.662Z,3.10
2018-10-21T03:11:51.159Z,3.10
2018-10-21T03:14:19.986Z,3.07
2018-10-21T03:16:49.144Z,2.63
2018-10-21T03:19:17.943Z,3.00
2018-10-21T03:21:46.806Z,2.70
2018-10-21T03:24:15.724Z,2.73
2018-10-21T03:26:47.301Z,3.20
2018-10-21T03:29:17.058Z,3.00
2018-10-21T03:31:46.309Z,2.50
2018-10-21T03:34:15.644Z,2.83
2018-10-21T03:36:45.567Z,2.33
2018-10-21T03:39:14.324Z,2.73
2018-10-21T03:41:44.139Z,2.67
2018-10-21T03:44:12.912Z,2.70
2018-10-21T03:46:41.823Z,2.83
2018-10-21T03:49:11.952Z,3.80
2018-10-21T03:51:41.308Z,2.60
2018-10-21T03:54:10.256Z,3.30
2018-10-21T03:56:39.337Z,2.70
2018-10-21T03:59:08.876Z,3.33
2018-10-21T04:01:37.715Z,2.77
2018-10-21T04:04:07.236Z,3.20
2018-10-21T04:06:35.990Z,2.77
2018-10-21T04:09:06.235Z,3.70
2018-10-21T04:11:35.623Z,2.50
2018-10-21T04:14:04.426Z,4.70
2018-10-21T04:16:33.199Z,2.80
2018-10-21T04:19:03.062Z,3.63
2018-10-21T04:21:31.928Z,2.87
2018-10-21T04:24:00.882Z,3.73
2018-10-21T04:26:29.669Z,3.10
2018-10-21T04:28:59.195Z,4.00
2018-10-21T04:31:27.972Z,2.90
2018-10-21T04:33:57.566Z,3.47
2018-10-21T04:36:33.481Z,3.30
2018-10-21T04:40:14.727Z,2.80
2018-10-21T04:42:44.821Z,3.10
2018-10-21T04:45:15.914Z,3.50
2018-10-21T04:47:44.672Z,2.97
2018-10-21T04:50:14.222Z,3.10
2018-10-21T04:52:42.960Z,3.33
2018-10-21T05:00:49.578Z,4.67
2018-10-21T05:03:19.240Z,3.40
2018-10-21T05:05:48.888Z,4.47
2018-10-21T05:08:17.635Z,3.37
2018-10-21T05:10:46.475Z,4.00
2018-10-21T05:13:15.712Z,3.77
2018-10-21T05:15:46.161Z,4.37
2018-10-21T05:18:15.019Z,3.53
2018-10-21T05:20:43.801Z,3.60
2018-10-21T05:23:12.554Z,4.07
2018-10-21T05:25:42.506Z,4.17
2018-10-21T05:28:12.128Z,3.50
2018-10-21T05:30:44.133Z,4.40
2018-10-21T05:33:13.994Z,3.90
2018-10-21T05:35:44.136Z,4.20
2018-10-21T05:38:13.062Z,4.03
2018-10-21T05:40:42.405Z,4.70
2018-10-21T05:43:11.979Z,4.20
2018-10-21T05:45:40.983Z,3.90
2018-10-21T05:48:10.691Z,4.10
2018-10-21T05:50:41.180Z,3.87
2018-10-21T05:53:10.248Z,3.47
2018-10-21T05:55:39.335Z,3.73
2018-10-21T05:58:08.229Z,3.50
2018-10-21T06:00:37.655Z,3.53
2018-10-21T06:03:07.449Z,3.53
2018-10-21T06:05:38.730Z,3.10
2018-10-21T06:08:07.947Z,4.00
2018-10-21T06:10:36.705Z,3.37
2018-10-21T06:13:06.873Z,3.20
2018-10-21T06:15:35.644Z,2.70
2018-10-21T06:18:11.590Z,3.73
2018-10-21T06:20:43.395Z,3.10
2018-10-21T06:23:13.297Z,3.27
2018-10-21T06:25:42.877Z,2.80
2018-10-21T06:28:12.730Z,3.47
2018-10-21T06:30:42.242Z,2.50
2018-10-21T06:33:14.287Z,4.20
2018-10-21T06:35:43.931Z,2.63
2018-10-21T06:38:12.848Z,3.40
2018-10-21T06:40:42.266Z,2.77
2018-10-21T06:43:12.844Z,3.07
2018-10-21T06:45:42.807Z,2.50
2018-10-21T06:48:12.083Z,2.60
2018-10-21T06:50:42.523Z,2.23
2018-10-21T06:53:12.064Z,2.10
2018-10-21T06:55:41.737Z,2.73
2018-10-21T06:58:10.959Z,2.17
2018-10-21T07:00:41.624Z,2.27
2018-10-21T07:03:11.377Z,2.40
2018-10-21T07:06:16.241Z,2.83
2018-10-21T07:08:45.798Z,3.17
2018-10-21T07:11:14.733Z,2.77
2018-10-21T07:13:44.313Z,2.47
2018-10-21T07:16:13.404Z,2.83
2018-10-21T07:18:43.201Z,3.33
2018-10-21T07:21:12.308Z,2.37
2018-10-21T07:23:42.293Z,3.27
2018-10-21T07:26:12.381Z,2.60
2018-10-21T07:28:42.195Z,3.00
2018-10-21T07:31:11.799Z,2.90
2018-10-21T07:33:42.106Z,2.50
2018-10-21T07:36:12.404Z,2.77
2018-10-21T07:38:42.122Z,2.90
2018-10-21T07:41:11.622Z,2.90
2018-10-21T07:43:42.070Z,2.83
2018-10-21T07:46:16.154Z,2.03
2018-10-21T07:48:45.971Z,2.87
2018-10-21T07:51:15.422Z,2.73
2018-10-21T07:53:44.259Z,2.63
2018-10-21T07:56:13.040Z,2.13
2018-10-21T07:58:43.221Z,2.83
2018-10-21T08:01:12.593Z,2.37
2018-10-21T08:03:45.272Z,2.40
2018-10-21T08:06:27.351Z,2.07
2018-10-21T08:08:56.191Z,3.43
2018-10-21T08:11:25.615Z,2.07
2018-10-21T08:13:54.858Z,3.10
2018-10-21T08:16:23.679Z,2.30
2018-10-21T08:18:53.135Z,2.93
2018-10-21T08:21:22.040Z,2.10
2018-10-21T08:23:50.895Z,2.20
2018-10-21T08:26:20.542Z,2.97
2018-10-21T08:28:50.322Z,2.37
2018-10-21T08:31:19.127Z,2.70
2018-10-21T08:33:48.877Z,2.60
2018-10-21T08:36:18.189Z,2.57
2018-10-21T08:38:46.996Z,2.10
2018-10-21T08:41:15.770Z,2.50
2018-10-21T08:43:45.193Z,2.70
2018-10-21T08:46:14.595Z,2.50
2018-10-21T08:48:43.274Z,2.23
2018-10-21T08:51:12.862Z,3.47
2018-10-21T08:53:42.212Z,2.20
2018-10-21T08:56:11.277Z,3.30
2018-10-21T08:58:40.469Z,2.40
2018-10-21T09:01:10.509Z,2.77
2018-10-21T09:03:40.160Z,2.47
2018-10-21T09:06:10.303Z,2.40
2018-10-21T09:08:40.252Z,2.60
2018-10-21T09:11:10.129Z,2.63
2018-10-21T09:13:40.188Z,1.93
2018-10-21T09:16:09.277Z,2.67
2018-10-21T09:18:38.031Z,2.30
2018-10-21T09:21:06.914Z,2.50
2018-10-21T09:23:36.508Z,2.07
2018-10-21T09:26:05.380Z,2.40
2018-10-21T09:28:34.878Z,2.40
2018-10-21T09:31:03.705Z,3.00
2018-10-21T09:33:33.021Z,2.30
2018-10-21T09:36:02.375Z,2.60
2018-10-21T09:38:32.008Z,2.73
2018-10-21T09:41:00.910Z,2.17
2018-10-21T09:43:30.663Z,2.40
2018-10-21T09:46:01.013Z,2.17
2018-10-21T09:48:29.781Z,2.40
2018-10-21T09:50:58.617Z,2.27
2018-10-21T09:53:27.385Z,2.37
2018-10-21T09:55:56.511Z,2.33
2018-10-21T09:58:26.001Z,2.83
2018-10-21T10:01:00.617Z,1.97
2018-10-21T10:03:30.111Z,2.43
2018-10-21T10:05:58.923Z,2.10
2018-10-21T10:08:27.723Z,2.00
2018-10-21T10:10:56.518Z,2.20
2018-10-21T10:13:26.302Z,2.70
2018-10-21T10:15:55.250Z,1.80
2018-10-21T10:18:24.131Z,2.20
2018-10-21T10:20:53.705Z,2.07
2018-10-21T10:23:22.876Z,2.23
2018-10-21T10:25:51.629Z,1.90
2018-10-21T10:28:21.374Z,1.90
2018-10-21T10:30:50.651Z,2.03
2018-10-21T10:33:20.242Z,1.80
2018-10-21T10:35:49.815Z,1.90
2018-10-21T10:38:18.649Z,1.63
2018-10-21T10:40:47.460Z,1.97
2018-10-21T10:43:17.546Z,1.63
2018-10-21T10:45:46.319Z,2.20
2018-10-21T10:48:15.147Z,1.57
2018-10-21T10:50:44.816Z,2.33
2018-10-21T10:53:13.625Z,1.40
2018-10-21T10:55:46.199Z,2.00
2018-10-21T10:58:15.870Z,1.97
2018-10-21T11:00:45.423Z,2.37
2018-10-21T11:03:15.092Z,1.50
2018-10-21T11:05:43.893Z,1.87
2018-10-21T11:08:13.795Z,1.57
2018-10-21T11:10:42.706Z,2.10
2018-10-21T11:13:16.017Z,1.37
2018-10-21T11:15:44.892Z,1.83
2018-10-21T11:18:14.389Z,1.30
2018-10-21T11:20:43.193Z,1.83
2018-10-21T11:23:13.278Z,1.50
2018-10-21T11:25:42.272Z,1.50
2018-10-21T11:28:12.267Z,1.40
2018-10-21T11:30:42.069Z,1.97
2018-10-21T11:33:12.623Z,1.10
2018-10-21T11:35:43.097Z,1.30
2018-10-21T11:38:12.829Z,1.43
2018-10-21T11:40:42.198Z,2.13
2018-10-21T11:43:12.104Z,1.70
2018-10-21T11:45:42.055Z,1.53
2018-10-21T11:48:11.425Z,1.20
2018-10-21T11:50:41.310Z,1.30
2018-10-21T11:53:10.336Z,1.30
2018-10-21T11:55:40.544Z,1.07
2018-10-21T11:58:16.147Z,1.57
2018-10-21T12:00:46.943Z,1.37
2018-10-21T12:03:16.572Z,1.17
2018-10-21T12:05:45.359Z,1.20
2018-10-21T12:08:14.460Z,1.00
2018-10-21T12:10:43.659Z,1.17
2018-10-21T12:13:13.388Z,1.00
2018-10-21T12:15:45.451Z,1.30
2018-10-21T12:18:14.346Z,0.97
2018-10-21T12:20:43.233Z,0.93
2018-10-21T12:23:13.255Z,1.00
2018-10-21T12:25:43.168Z,0.83
2018-10-21T12:28:12.304Z,0.90
2018-10-21T12:30:44.738Z,0.90
2018-10-21T12:33:14.122Z,1.03
2018-10-21T12:35:43.649Z,0.87
2018-10-21T12:38:12.468Z,1.00
2018-10-21T12:40:42.911Z,1.00
2018-10-21T12:43:13.188Z,0.90
2018-10-21T12:45:43.049Z,1.00
2018-10-21T12:48:13.384Z,1.33
2018-10-21T12:50:42.378Z,1.10
2018-10-21T12:53:12.571Z,0.83
2018-10-21T12:55:47.643Z,0.80
2018-10-21T12:58:16.572Z,0.80
2018-10-21T13:00:46.171Z,1.03
2018-10-21T13:03:15.789Z,0.70
2018-10-21T13:06:47.408Z,1.10
2018-10-21T13:09:16.304Z,1.03
2018-10-21T13:11:45.976Z,2.27
2018-10-21T13:14:15.583Z,0.83
2018-10-21T13:16:44.582Z,1.77
2018-10-21T13:19:13.432Z,0.93
2018-10-21T13:21:42.916Z,1.07
2018-10-21T13:24:12.482Z,1.50
2018-10-21T13:26:43.244Z,1.13
2018-10-21T13:29:12.163Z,0.97
2018-10-21T13:31:42.878Z,1.30
2018-10-21T13:34:12.496Z,1.00
2018-10-21T13:36:42.003Z,1.17
2018-10-21T13:39:13.812Z,1.10
2018-10-21T13:41:44.787Z,1.17
2018-10-21T13:44:13.554Z,0.70
2018-10-21T13:46:43.169Z,1.10
2018-10-21T13:49:12.203Z,0.90
2018-10-21T13:51:41.747Z,0.97
2018-10-21T13:54:10.951Z,0.90
2018-10-21T13:56:40.188Z,0.90
2018-10-21T13:59:12.151Z,1.13
2018-10-21T14:01:42.315Z,1.07
2018-10-21T14:04:12.230Z,1.23
2018-10-21T14:06:41.518Z,0.93
2018-10-21T14:09:12.987Z,0.90
2018-10-21T14:11:44.103Z,1.20
2018-10-21T14:14:12.973Z,0.70
2018-10-21T14:16:42.821Z,1.10
2018-10-21T14:19:11.912Z,1.30
2018-10-21T14:21:42.591Z,1.20
2018-10-21T14:24:12.124Z,0.90
2018-10-21T14:26:41.824Z,1.07
2018-10-21T14:29:12.011Z,1.00
2018-10-21T14:31:42.415Z,1.10
2018-10-21T14:34:12.447Z,1.10
2018-10-21T14:36:42.217Z,1.33
2018-10-21T14:39:13.618Z,1.00
2018-10-21T14:41:43.428Z,1.63
2018-10-21T14:44:12.254Z,1.00
2018-10-21T14:46:41.750Z,1.13
2018-10-21T14:49:11.331Z,1.13
2018-10-21T14:51:41.386Z,1.27
2018-10-21T14:54:10.912Z,1.20
2018-10-21T14:56:39.894Z,1.30
2018-10-21T14:59:09.702Z,1.37
2018-10-21T15:01:38.730Z,1.07
2018-10-21T15:04:09.980Z,1.03
2018-10-21T15:06:39.652Z,1.10
2018-10-21T15:09:12.718Z,1.10
2018-10-21T15:11:42.985Z,1.33
2018-10-21T15:14:13.122Z,1.20
2018-10-21T15:16:41.994Z,1.33
2018-10-21T15:19:11.721Z,1.30
2018-10-21T15:24:16.501Z,1.13
2018-10-21T15:26:45.344Z,1.27
2018-10-21T15:29:14.181Z,1.00
2018-10-21T15:31:43.699Z,1.07
2018-10-21T15:34:13.013Z,1.00
2018-10-21T15:36:43.742Z,1.73
2018-10-21T15:39:13.784Z,1.37
2018-10-21T15:41:43.246Z,1.43
2018-10-21T15:44:13.096Z,1.27
2018-10-21T15:46:43.072Z,1.80
2018-10-21T15:49:12.761Z,1.60
2018-10-21T15:51:42.053Z,1.37
2018-10-21T15:54:11.620Z,1.57
2018-10-21T15:56:41.404Z,1.80
2018-10-21T15:59:12.350Z,1.90
2018-10-21T16:01:41.918Z,1.70
2018-10-21T16:04:12.216Z,1.83
2018-10-21T16:06:42.662Z,1.80
2018-10-21T16:09:13.186Z,2.00
2018-10-21T16:11:43.291Z,1.80
2018-10-21T16:14:12.339Z,1.60
2018-10-21T16:16:41.483Z,1.80
2018-10-21T16:19:11.263Z,1.43
2018-10-21T16:21:41.050Z,1.60
2018-10-21T16:24:13.309Z,2.93
2018-10-21T16:26:42.211Z,1.43
2018-10-21T16:29:11.940Z,1.47
2018-10-21T16:31:42.423Z,1.40
2018-10-21T16:34:12.901Z,1.97
2018-10-21T16:36:42.500Z,1.70
2018-10-21T16:39:13.241Z,2.00
2018-10-21T16:41:42.700Z,1.60
2018-10-21T16:44:13.090Z,2.43
2018-10-21T16:46:42.784Z,1.43
2018-10-21T16:49:12.242Z,1.97
2018-10-21T16:51:42.027Z,1.50
2018-10-21T16:54:11.778Z,1.47
2018-10-21T16:56:41.598Z,2.00
2018-10-21T16:59:11.848Z,1.97
2018-10-21T17:01:40.903Z,2.47
2018-10-21T17:04:11.102Z,1.80
2018-10-21T17:06:40.911Z,2.40
2018-10-21T17:09:12.148Z,1.60
2018-10-21T17:11:42.647Z,3.60
2018-10-21T17:14:12.111Z,1.80
2018-10-21T17:16:41.886Z,2.40
2018-10-21T17:19:11.430Z,1.70
2018-10-21T17:21:42.356Z,2.03
2018-10-21T17:24:12.123Z,1.73
2018-10-21T17:26:41.164Z,2.47
2018-10-21T17:29:10.807Z,2.00
2018-10-21T17:31:40.709Z,2.37
2018-10-21T17:34:10.505Z,1.60
2018-10-21T17:36:39.750Z,2.33
2018-10-21T17:39:12.891Z,1.70
2018-10-21T17:41:42.539Z,2.33
2018-10-21T17:44:12.665Z,1.80
2018-10-21T17:46:42.834Z,2.37
2018-10-21T17:49:22.702Z,4.00
2018-10-21T17:51:51.588Z,2.43
2018-10-21T17:54:20.387Z,1.87
2018-10-21T17:57:52.084Z,2.10
2018-10-21T18:00:22.047Z,2.10
2018-10-21T18:02:51.783Z,2.40
2018-10-21T18:05:20.543Z,2.33
2018-10-21T18:07:49.334Z,1.90
2018-10-21T18:10:18.401Z,2.10
2018-10-21T18:12:47.954Z,1.67
2018-10-21T18:15:16.721Z,2.00
2018-10-21T18:17:45.475Z,1.90
2018-10-21T18:20:14.533Z,2.30
2018-10-21T18:22:44.033Z,1.70
2018-10-21T18:25:12.978Z,2.13
2018-10-21T18:27:42.952Z,1.80
2018-10-21T18:30:13.174Z,3.60
2018-10-21T18:32:43.060Z,1.53
2018-10-21T18:35:14.806Z,2.10
2018-10-21T18:37:43.776Z,1.80
2018-10-21T18:40:13.501Z,2.03
2018-10-21T18:42:43.548Z,1.50
2018-10-21T18:45:14.510Z,3.70
2018-10-21T18:47:43.686Z,1.90
2018-10-21T18:50:13.975Z,2.07
2018-10-21T18:52:43.761Z,1.70
2018-10-21T18:55:13.087Z,1.97
2018-10-21T18:57:42.553Z,1.70
2018-10-21T19:00:17.396Z,2.40
2018-10-21T19:02:47.359Z,1.83
2018-10-21T19:05:16.828Z,2.17
2018-10-21T19:07:45.765Z,2.10
2018-10-21T19:10:15.951Z,2.40
2018-10-21T19:12:59.569Z,2.23
2018-10-21T19:15:15.683Z,2.20
2018-10-21T19:17:44.446Z,2.03
2018-10-21T19:20:14.658Z,3.23
2018-10-21T19:22:43.427Z,2.00
2018-10-21T19:25:13.849Z,2.57
2018-10-21T19:27:43.175Z,2.30
2018-10-21T19:30:13.787Z,2.93
2018-10-21T19:32:43.826Z,2.17
2018-10-21T19:35:14.545Z,3.10
2018-10-21T19:37:43.312Z,2.10
2018-10-21T19:40:14.315Z,2.33
2018-10-21T19:42:44.080Z,2.00
2018-10-21T19:45:13.544Z,2.53
2018-10-21T19:47:42.499Z,2.30
2018-10-21T19:50:14.860Z,2.67
2018-10-21T19:52:44.116Z,2.13
2018-10-21T19:55:13.278Z,2.80
2018-10-21T19:57:43.573Z,2.00
2018-10-21T20:00:15.515Z,2.73
2018-10-21T20:02:45.336Z,2.33
2018-10-21T20:05:14.700Z,2.60
2018-10-21T20:07:43.462Z,2.20
2018-10-21T20:10:14.529Z,2.97
2018-10-21T20:12:44.041Z,2.60
2018-10-21T20:15:13.394Z,2.83
2018-10-21T20:17:43.018Z,2.90
2018-10-21T20:20:12.967Z,3.10
2018-10-21T20:22:43.227Z,2.87
2018-10-21T20:25:12.861Z,3.60
2018-10-21T20:27:42.452Z,2.73
2018-10-21T20:30:13.290Z,3.17
2018-10-21T20:32:44.300Z,2.73
2018-10-21T20:35:13.634Z,3.10
2018-10-21T20:37:42.771Z,2.57
2018-10-21T20:40:13.301Z,3.10
2018-10-21T20:42:43.738Z,2.70
2018-10-21T20:45:13.413Z,3.40
2018-10-21T20:47:42.218Z,2.67
2018-10-21T20:50:16.583Z,4.30
2018-10-21T20:52:46.213Z,2.80
2018-10-21T20:55:15.446Z,3.13
2018-10-21T20:57:44.200Z,2.83
2018-10-21T21:00:14.533Z,3.20
2018-10-21T21:02:43.886Z,2.80
2018-10-21T21:05:13.474Z,3.70
2018-10-21T21:07:42.244Z,2.80
2018-10-21T21:10:11.451Z,3.20
2018-10-21T21:12:41.923Z,2.87
2018-10-21T21:15:11.407Z,4.00
2018-10-21T21:17:40.404Z,3.00
2018-10-21T21:20:10.135Z,5.37
2018-10-21T21:22:39.108Z,3.03
2018-10-21T21:25:08.171Z,4.60
2018-10-21T21:27:36.991Z,3.57
2018-10-21T21:30:06.910Z,4.10
2018-10-21T21:32:36.203Z,3.50
2018-10-21T21:35:07.474Z,3.63
2018-10-21T21:37:36.356Z,3.67
2018-10-21T21:40:07.088Z,3.70
2018-10-21T21:42:36.381Z,4.50
2018-10-21T21:45:05.380Z,4.13
2018-10-21T21:47:34.122Z,4.40
2018-10-21T21:50:02.997Z,3.80
2018-10-21T21:52:32.503Z,3.90
2018-10-21T21:55:01.250Z,3.40
2018-10-21T21:57:30.106Z,4.40
2018-10-21T21:59:59.687Z,4.10
2018-10-21T22:02:28.495Z,3.90
2018-10-21T22:05:28.491Z,3.67
2018-10-21T22:07:57.254Z,3.50
2018-10-21T22:10:26.152Z,3.80
2018-10-21T22:12:55.999Z,3.57
2018-10-21T22:15:24.770Z,4.60
2018-10-21T22:17:53.634Z,3.30
2018-10-21T22:20:22.511Z,3.70
2018-10-21T22:22:51.302Z,3.70
2018-10-21T22:25:20.241Z,3.50
2018-10-21T22:27:49.232Z,3.17
2018-10-21T22:30:18.027Z,3.20
2018-10-21T22:32:47.431Z,3.20
2018-10-21T22:35:16.951Z,3.10
2018-10-21T22:37:45.869Z,3.20
2018-10-21T22:40:15.481Z,2.97
2018-10-21T22:42:44.843Z,2.87
2018-10-21T22:45:13.600Z,2.70
2018-10-21T22:47:42.420Z,2.80
2018-10-21T22:50:12.868Z,2.30
2018-10-21T22:52:43.055Z,2.20
2018-10-21T22:55:12.671Z,1.97
2018-10-21T22:57:42.272Z,2.40
2018-10-21T23:00:12.657Z,1.83
2018-10-21T23:02:43.319Z,2.00
2018-10-21T23:05:12.675Z,1.80
2018-10-21T23:07:42.078Z,2.10
2018-10-21T23:10:11.694Z,1.60
2018-10-21T23:12:43.121Z,1.77
2018-10-21T23:15:12.171Z,1.57
2018-10-21T23:17:42.213Z,1.67
2018-10-21T23:20:11.536Z,1.30
2018-10-21T23:22:41.215Z,1.70
2018-10-21T23:25:10.989Z,1.40
2018-10-21T23:27:40.457Z,1.40
2018-10-21T23:30:11.132Z,1.50
2018-10-21T23:32:41.735Z,1.50
2018-10-21T23:35:12.891Z,1.20
2018-10-21T23:37:42.151Z,1.27
2018-10-21T23:40:12.665Z,1.10
2018-10-21T23:42:43.843Z,1.40
2018-10-21T23:45:12.629Z,0.80
2018-10-21T23:47:42.680Z,1.43
2018-10-21T23:50:12.399Z,0.70
2018-10-21T23:52:42.149Z,1.27
2018-10-21T23:55:11.434Z,1.17
2018-10-21T23:57:40.891Z,1.00
